sensor_id;sensor_type;location;lat;lon;timestamp;P1;durP1;ratioP1;P2;durP2;ratioP2
9888;SDS011;4983;42.112;24.738;2023-05-07T00:00:40;7.70;;;3.40;;
9888;SDS011;4983;42.112;24.738;2023-05-07T00:03:08;3.73;;;2.97;;
9888;SDS011;4983;42.112;24.738;2023-05-07T00:05:34;4.17;;;3.13;;
9888;SDS011;4983;42.112;24.738;2023-05-07T00:08:03;3.37;;;3.03;;
9888;SDS011;4983;42.112;24.738;2023-05-07T00:10:31;4.13;;;3.33;;
9888;SDS011;4983;42.112;24.738;2023-05-07T00:12:58;5.80;;;3.40;;
9888;SDS011;4983;42.112;24.738;2023-05-07T00:15:27;4.60;;;3.10;;
9888;SDS011;4983;42.112;24.738;2023-05-07T00:17:55;5.03;;;3.33;;
9888;SDS011;4983;42.112;24.738;2023-05-07T00:20:22;4.90;;;3.30;;
9888;SDS011;4983;42.112;24.738;2023-05-07T00:22:49;3.60;;;3.13;;
9888;SDS011;4983;42.112;24.738;2023-05-07T00:25:18;3.90;;;3.30;;
9888;SDS011;4983;42.112;24.738;2023-05-07T00:27:47;3.47;;;2.87;;
9888;SDS011;4983;42.112;24.738;2023-05-07T00:30:14;3.60;;;3.00;;
9888;SDS011;4983;42.112;24.738;2023-05-07T00:32:41;3.30;;;3.00;;
9888;SDS011;4983;42.112;24.738;2023-05-07T00:35:10;3.17;;;2.83;;
9888;SDS011;4983;42.112;24.738;2023-05-07T00:37:37;3.20;;;2.87;;
9888;SDS011;4983;42.112;24.738;2023-05-07T00:40:05;3.87;;;3.07;;
9888;SDS011;4983;42.112;24.738;2023-05-07T00:42:34;4.60;;;3.23;;
9888;SDS011;4983;42.112;24.738;2023-05-07T00:45:02;5.10;;;3.10;;
9888;SDS011;4983;42.112;24.738;2023-05-07T00:47:29;3.83;;;2.97;;
9888;SDS011;4983;42.112;24.738;2023-05-07T00:49:57;3.67;;;3.00;;
9888;SDS011;4983;42.112;24.738;2023-05-07T00:52:24;2.83;;;2.63;;
9888;SDS011;4983;42.112;24.738;2023-05-07T00:54:54;3.20;;;2.90;;
9888;SDS011;4983;42.112;24.738;2023-05-07T00:57:21;3.47;;;2.83;;
9888;SDS011;4983;42.112;24.738;2023-05-07T00:59:52;3.33;;;3.00;;
9888;SDS011;4983;42.112;24.738;2023-05-07T01:02:20;2.90;;;2.60;;
9888;SDS011;4983;42.112;24.738;2023-05-07T01:04:47;4.17;;;2.63;;
9888;SDS011;4983;42.112;24.738;2023-05-07T01:07:14;2.73;;;2.50;;
9888;SDS011;4983;42.112;24.738;2023-05-07T01:09:41;3.57;;;2.90;;
9888;SDS011;4983;42.112;24.738;2023-05-07T01:12:13;2.90;;;2.60;;
9888;SDS011;4983;42.112;24.738;2023-05-07T01:14:40;3.33;;;2.97;;
9888;SDS011;4983;42.112;24.738;2023-05-07T01:17:08;3.23;;;2.83;;
9888;SDS011;4983;42.112;24.738;2023-05-07T01:19:36;4.80;;;2.70;;
9888;SDS011;4983;42.112;24.738;2023-05-07T01:22:06;4.60;;;3.23;;
9888;SDS011;4983;42.112;24.738;2023-05-07T01:24:35;4.77;;;2.80;;
9888;SDS011;4983;42.112;24.738;2023-05-07T01:27:03;4.17;;;2.70;;
9888;SDS011;4983;42.112;24.738;2023-05-07T01:29:31;3.33;;;2.87;;
9888;SDS011;4983;42.112;24.738;2023-05-07T01:31:59;2.90;;;2.50;;
9888;SDS011;4983;42.112;24.738;2023-05-07T01:34:27;3.40;;;3.10;;
9888;SDS011;4983;42.112;24.738;2023-05-07T01:36:55;3.33;;;2.83;;
9888;SDS011;4983;42.112;24.738;2023-05-07T01:39:24;5.23;;;3.00;;
9888;SDS011;4983;42.112;24.738;2023-05-07T01:41:52;3.27;;;2.80;;
9888;SDS011;4983;42.112;24.738;2023-05-07T01:44:22;4.23;;;2.80;;
9888;SDS011;4983;42.112;24.738;2023-05-07T01:46:49;3.57;;;2.87;;
9888;SDS011;4983;42.112;24.738;2023-05-07T01:49:16;3.40;;;3.10;;
9888;SDS011;4983;42.112;24.738;2023-05-07T01:51:44;3.97;;;3.00;;
9888;SDS011;4983;42.112;24.738;2023-05-07T01:54:11;4.23;;;2.70;;
9888;SDS011;4983;42.112;24.738;2023-05-07T01:56:38;3.03;;;2.73;;
9888;SDS011;4983;42.112;24.738;2023-05-07T01:59:07;4.27;;;3.33;;
9888;SDS011;4983;42.112;24.738;2023-05-07T02:01:34;4.20;;;3.00;;
9888;SDS011;4983;42.112;24.738;2023-05-07T02:04:01;4.30;;;3.13;;
9888;SDS011;4983;42.112;24.738;2023-05-07T02:06:28;3.80;;;3.47;;
9888;SDS011;4983;42.112;24.738;2023-05-07T02:08:56;3.40;;;3.00;;
9888;SDS011;4983;42.112;24.738;2023-05-07T02:11:23;4.77;;;3.50;;
9888;SDS011;4983;42.112;24.738;2023-05-07T02:13:51;4.47;;;3.27;;
9888;SDS011;4983;42.112;24.738;2023-05-07T02:16:21;4.10;;;3.23;;
9888;SDS011;4983;42.112;24.738;2023-05-07T02:18:48;6.00;;;3.60;;
9888;SDS011;4983;42.112;24.738;2023-05-07T02:21:16;4.77;;;3.33;;
9888;SDS011;4983;42.112;24.738;2023-05-07T02:23:43;3.33;;;3.03;;
9888;SDS011;4983;42.112;24.738;2023-05-07T02:26:10;3.57;;;2.90;;
9888;SDS011;4983;42.112;24.738;2023-05-07T02:28:36;3.67;;;3.37;;
9888;SDS011;4983;42.112;24.738;2023-05-07T02:31:03;3.30;;;3.00;;
9888;SDS011;4983;42.112;24.738;2023-05-07T02:33:31;4.80;;;3.53;;
9888;SDS011;4983;42.112;24.738;2023-05-07T02:36:05;5.30;;;3.57;;
9888;SDS011;4983;42.112;24.738;2023-05-07T02:38:31;3.90;;;3.50;;
9888;SDS011;4983;42.112;24.738;2023-05-07T02:40:58;3.40;;;3.07;;
9888;SDS011;4983;42.112;24.738;2023-05-07T02:43:25;3.33;;;3.03;;
9888;SDS011;4983;42.112;24.738;2023-05-07T02:45:59;4.70;;;3.80;;
9888;SDS011;4983;42.112;24.738;2023-05-07T02:48:26;4.43;;;3.70;;
9888;SDS011;4983;42.112;24.738;2023-05-07T02:50:54;3.93;;;3.23;;
9888;SDS011;4983;42.112;24.738;2023-05-07T02:53:21;3.77;;;3.37;;
9888;SDS011;4983;42.112;24.738;2023-05-07T02:55:48;4.77;;;3.87;;
9888;SDS011;4983;42.112;24.738;2023-05-07T02:58:14;4.20;;;3.43;;
9888;SDS011;4983;42.112;24.738;2023-05-07T03:00:41;4.43;;;3.80;;
9888;SDS011;4983;42.112;24.738;2023-05-07T03:03:08;5.73;;;3.60;;
9888;SDS011;4983;42.112;24.738;2023-05-07T03:05:36;5.17;;;3.70;;
9888;SDS011;4983;42.112;24.738;2023-05-07T03:08:04;4.17;;;3.47;;
9888;SDS011;4983;42.112;24.738;2023-05-07T03:10:31;4.50;;;3.90;;
9888;SDS011;4983;42.112;24.738;2023-05-07T03:12:58;4.20;;;3.37;;
9888;SDS011;4983;42.112;24.738;2023-05-07T03:15:25;4.10;;;3.70;;
9888;SDS011;4983;42.112;24.738;2023-05-07T03:17:51;5.43;;;3.93;;
9888;SDS011;4983;42.112;24.738;2023-05-07T03:20:18;4.67;;;4.20;;
9888;SDS011;4983;42.112;24.738;2023-05-07T03:22:45;4.57;;;3.83;;
9888;SDS011;4983;42.112;24.738;2023-05-07T03:25:13;4.90;;;4.07;;
9888;SDS011;4983;42.112;24.738;2023-05-07T03:27:40;4.53;;;3.93;;
9888;SDS011;4983;42.112;24.738;2023-05-07T03:30:07;5.00;;;4.13;;
9888;SDS011;4983;42.112;24.738;2023-05-07T03:32:35;4.37;;;3.97;;
9888;SDS011;4983;42.112;24.738;2023-05-07T03:35:02;6.20;;;4.00;;
9888;SDS011;4983;42.112;24.738;2023-05-07T03:37:31;5.87;;;4.23;;
9888;SDS011;4983;42.112;24.738;2023-05-07T03:39:57;7.70;;;4.13;;
9888;SDS011;4983;42.112;24.738;2023-05-07T03:42:26;4.53;;;3.83;;
9888;SDS011;4983;42.112;24.738;2023-05-07T03:44:52;5.37;;;3.93;;
9888;SDS011;4983;42.112;24.738;2023-05-07T03:47:19;4.43;;;3.90;;
9888;SDS011;4983;42.112;24.738;2023-05-07T03:49:46;4.40;;;4.00;;
9888;SDS011;4983;42.112;24.738;2023-05-07T03:52:13;4.23;;;3.70;;
9888;SDS011;4983;42.112;24.738;2023-05-07T03:54:40;4.83;;;4.10;;
9888;SDS011;4983;42.112;24.738;2023-05-07T03:57:06;4.50;;;3.83;;
9888;SDS011;4983;42.112;24.738;2023-05-07T03:59:35;5.67;;;3.80;;
9888;SDS011;4983;42.112;24.738;2023-05-07T04:02:01;4.73;;;4.13;;
9888;SDS011;4983;42.112;24.738;2023-05-07T04:04:28;4.60;;;3.87;;
9888;SDS011;4983;42.112;24.738;2023-05-07T04:06:58;4.97;;;4.20;;
9888;SDS011;4983;42.112;24.738;2023-05-07T04:09:25;4.00;;;3.60;;
9888;SDS011;4983;42.112;24.738;2023-05-07T04:11:53;5.30;;;3.77;;
9888;SDS011;4983;42.112;24.738;2023-05-07T04:14:21;4.03;;;3.53;;
9888;SDS011;4983;42.112;24.738;2023-05-07T04:16:49;7.20;;;4.00;;
9888;SDS011;4983;42.112;24.738;2023-05-07T04:19:16;5.47;;;4.03;;
9888;SDS011;4983;42.112;24.738;2023-05-07T04:21:42;6.20;;;3.93;;
9888;SDS011;4983;42.112;24.738;2023-05-07T04:24:09;4.33;;;3.77;;
9888;SDS011;4983;42.112;24.738;2023-05-07T04:26:36;4.83;;;3.90;;
9888;SDS011;4983;42.112;24.738;2023-05-07T04:29:03;4.73;;;3.80;;
9888;SDS011;4983;42.112;24.738;2023-05-07T04:31:29;4.93;;;3.90;;
9888;SDS011;4983;42.112;24.738;2023-05-07T04:33:58;6.50;;;4.07;;
9888;SDS011;4983;42.112;24.738;2023-05-07T04:36:25;4.53;;;3.70;;
9888;SDS011;4983;42.112;24.738;2023-05-07T04:38:52;5.13;;;3.87;;
9888;SDS011;4983;42.112;24.738;2023-05-07T04:41:19;4.73;;;4.07;;
9888;SDS011;4983;42.112;24.738;2023-05-07T04:43:47;4.87;;;4.13;;
9888;SDS011;4983;42.112;24.738;2023-05-07T04:46:13;5.73;;;4.00;;
9888;SDS011;4983;42.112;24.738;2023-05-07T04:48:40;5.57;;;4.40;;
9888;SDS011;4983;42.112;24.738;2023-05-07T04:51:08;5.27;;;4.10;;
9888;SDS011;4983;42.112;24.738;2023-05-07T04:53:36;3.87;;;3.47;;
9888;SDS011;4983;42.112;24.738;2023-05-07T04:56:04;4.83;;;3.73;;
9888;SDS011;4983;42.112;24.738;2023-05-07T04:58:31;4.53;;;4.13;;
9888;SDS011;4983;42.112;24.738;2023-05-07T05:00:58;4.67;;;3.93;;
9888;SDS011;4983;42.112;24.738;2023-05-07T05:03:25;4.63;;;3.90;;
9888;SDS011;4983;42.112;24.738;2023-05-07T05:05:52;5.93;;;4.23;;
9888;SDS011;4983;42.112;24.738;2023-05-07T05:08:21;5.00;;;4.13;;
9888;SDS011;4983;42.112;24.738;2023-05-07T05:10:48;6.10;;;4.00;;
9888;SDS011;4983;42.112;24.738;2023-05-07T05:13:15;4.57;;;3.90;;
9888;SDS011;4983;42.112;24.738;2023-05-07T05:15:41;5.10;;;4.07;;
9888;SDS011;4983;42.112;24.738;2023-05-07T05:18:08;4.90;;;3.70;;
9888;SDS011;4983;42.112;24.738;2023-05-07T05:20:35;4.77;;;3.67;;
9888;SDS011;4983;42.112;24.738;2023-05-07T05:23:02;4.93;;;4.07;;
9888;SDS011;4983;42.112;24.738;2023-05-07T05:25:30;4.60;;;3.80;;
9888;SDS011;4983;42.112;24.738;2023-05-07T05:27:57;4.53;;;3.50;;
9888;SDS011;4983;42.112;24.738;2023-05-07T05:30:24;4.77;;;3.57;;
9888;SDS011;4983;42.112;24.738;2023-05-07T05:32:51;4.23;;;3.63;;
9888;SDS011;4983;42.112;24.738;2023-05-07T05:35:17;4.93;;;3.67;;
9888;SDS011;4983;42.112;24.738;2023-05-07T05:37:45;4.40;;;3.90;;
9888;SDS011;4983;42.112;24.738;2023-05-07T05:40:12;6.80;;;4.07;;
9888;SDS011;4983;42.112;24.738;2023-05-07T05:42:40;5.07;;;3.60;;
9888;SDS011;4983;42.112;24.738;2023-05-07T05:45:07;4.13;;;3.70;;
9888;SDS011;4983;42.112;24.738;2023-05-07T05:47:34;4.77;;;3.90;;
9888;SDS011;4983;42.112;24.738;2023-05-07T05:50:01;5.17;;;3.53;;
9888;SDS011;4983;42.112;24.738;2023-05-07T05:52:28;4.10;;;3.67;;
9888;SDS011;4983;42.112;24.738;2023-05-07T05:54:54;5.53;;;3.90;;
9888;SDS011;4983;42.112;24.738;2023-05-07T05:57:21;4.43;;;3.43;;
9888;SDS011;4983;42.112;24.738;2023-05-07T05:59:49;6.10;;;3.70;;
9888;SDS011;4983;42.112;24.738;2023-05-07T06:02:16;4.73;;;3.80;;
9888;SDS011;4983;42.112;24.738;2023-05-07T06:04:43;4.43;;;3.50;;
9888;SDS011;4983;42.112;24.738;2023-05-07T06:07:09;5.77;;;4.07;;
9888;SDS011;4983;42.112;24.738;2023-05-07T06:09:36;4.07;;;3.47;;
9888;SDS011;4983;42.112;24.738;2023-05-07T06:12:03;4.10;;;3.43;;
9888;SDS011;4983;42.112;24.738;2023-05-07T06:14:30;3.90;;;3.50;;
9888;SDS011;4983;42.112;24.738;2023-05-07T06:16:59;5.77;;;3.37;;
9888;SDS011;4983;42.112;24.738;2023-05-07T06:19:25;7.87;;;3.77;;
9888;SDS011;4983;42.112;24.738;2023-05-07T06:21:53;4.00;;;3.20;;
9888;SDS011;4983;42.112;24.738;2023-05-07T06:24:21;5.15;;;4.20;;
9888;SDS011;4983;42.112;24.738;2023-05-07T06:26:48;3.93;;;3.57;;
9888;SDS011;4983;42.112;24.738;2023-05-07T06:29:15;4.03;;;3.23;;
9888;SDS011;4983;42.112;24.738;2023-05-07T06:31:41;3.80;;;3.30;;
9888;SDS011;4983;42.112;24.738;2023-05-07T06:34:10;4.00;;;3.30;;
9888;SDS011;4983;42.112;24.738;2023-05-07T06:36:39;3.57;;;3.23;;
9888;SDS011;4983;42.112;24.738;2023-05-07T06:39:06;3.43;;;3.13;;
9888;SDS011;4983;42.112;24.738;2023-05-07T06:41:34;3.67;;;2.93;;
9888;SDS011;4983;42.112;24.738;2023-05-07T06:44:01;3.53;;;3.23;;
9888;SDS011;4983;42.112;24.738;2023-05-07T06:46:27;3.43;;;3.03;;
9888;SDS011;4983;42.112;24.738;2023-05-07T06:48:56;5.20;;;3.23;;
9888;SDS011;4983;42.112;24.738;2023-05-07T06:51:24;4.20;;;3.50;;
9888;SDS011;4983;42.112;24.738;2023-05-07T06:53:52;4.00;;;3.40;;
9888;SDS011;4983;42.112;24.738;2023-05-07T06:56:18;5.13;;;3.60;;
9888;SDS011;4983;42.112;24.738;2023-05-07T06:58:46;4.63;;;3.60;;
9888;SDS011;4983;42.112;24.738;2023-05-07T07:01:13;4.80;;;3.30;;
9888;SDS011;4983;42.112;24.738;2023-05-07T07:03:40;5.10;;;3.57;;
9888;SDS011;4983;42.112;24.738;2023-05-07T07:06:07;4.27;;;3.43;;
9888;SDS011;4983;42.112;24.738;2023-05-07T07:08:35;3.90;;;3.50;;
9888;SDS011;4983;42.112;24.738;2023-05-07T07:11:04;4.03;;;3.63;;
9888;SDS011;4983;42.112;24.738;2023-05-07T07:13:31;4.23;;;3.43;;
9888;SDS011;4983;42.112;24.738;2023-05-07T07:15:57;3.77;;;3.37;;
9888;SDS011;4983;42.112;24.738;2023-05-07T07:18:24;4.60;;;3.20;;
9888;SDS011;4983;42.112;24.738;2023-05-07T07:20:51;4.00;;;3.53;;
9888;SDS011;4983;42.112;24.738;2023-05-07T07:23:19;3.60;;;3.30;;
9888;SDS011;4983;42.112;24.738;2023-05-07T07:25:47;4.30;;;3.37;;
9888;SDS011;4983;42.112;24.738;2023-05-07T07:28:14;5.20;;;3.30;;
9888;SDS011;4983;42.112;24.738;2023-05-07T07:30:41;5.93;;;3.20;;
9888;SDS011;4983;42.112;24.738;2023-05-07T07:33:08;4.00;;;3.53;;
9888;SDS011;4983;42.112;24.738;2023-05-07T07:35:35;4.23;;;3.43;;
9888;SDS011;4983;42.112;24.738;2023-05-07T07:38:01;3.60;;;3.30;;
9888;SDS011;4983;42.112;24.738;2023-05-07T07:40:28;4.37;;;3.20;;
9888;SDS011;4983;42.112;24.738;2023-05-07T07:42:56;3.77;;;3.30;;
9888;SDS011;4983;42.112;24.738;2023-05-07T07:45:23;3.93;;;3.53;;
9888;SDS011;4983;42.112;24.738;2023-05-07T07:47:52;3.47;;;3.17;;
9888;SDS011;4983;42.112;24.738;2023-05-07T07:50:19;3.57;;;3.27;;
9888;SDS011;4983;42.112;24.738;2023-05-07T07:52:46;3.53;;;3.23;;
9888;SDS011;4983;42.112;24.738;2023-05-07T07:55:13;3.47;;;3.13;;
9888;SDS011;4983;42.112;24.738;2023-05-07T07:57:43;3.90;;;3.50;;
9888;SDS011;4983;42.112;24.738;2023-05-07T08:00:12;3.50;;;3.20;;
9888;SDS011;4983;42.112;24.738;2023-05-07T08:02:39;4.27;;;3.53;;
9888;SDS011;4983;42.112;24.738;2023-05-07T08:05:07;3.87;;;3.43;;
9888;SDS011;4983;42.112;24.738;2023-05-07T08:07:34;4.47;;;3.30;;
9888;SDS011;4983;42.112;24.738;2023-05-07T08:10:01;4.40;;;3.30;;
9888;SDS011;4983;42.112;24.738;2023-05-07T08:12:27;3.63;;;3.13;;
9888;SDS011;4983;42.112;24.738;2023-05-07T08:14:54;4.13;;;3.40;;
9888;SDS011;4983;42.112;24.738;2023-05-07T08:17:22;2.70;;;2.50;;
9888;SDS011;4983;42.112;24.738;2023-05-07T08:19:49;3.43;;;2.90;;
9888;SDS011;4983;42.112;24.738;2023-05-07T08:22:16;4.90;;;3.23;;
9888;SDS011;4983;42.112;24.738;2023-05-07T08:24:43;3.43;;;3.13;;
9888;SDS011;4983;42.112;24.738;2023-05-07T08:27:11;3.70;;;3.20;;
9888;SDS011;4983;42.112;24.738;2023-05-07T08:29:37;3.13;;;2.87;;
9888;SDS011;4983;42.112;24.738;2023-05-07T08:32:05;3.73;;;2.90;;
9888;SDS011;4983;42.112;24.738;2023-05-07T08:34:34;3.80;;;3.20;;
9888;SDS011;4983;42.112;24.738;2023-05-07T08:37:00;3.43;;;2.90;;
9888;SDS011;4983;42.112;24.738;2023-05-07T08:39:27;2.70;;;2.50;;
9888;SDS011;4983;42.112;24.738;2023-05-07T08:41:55;2.43;;;2.23;;
9888;SDS011;4983;42.112;24.738;2023-05-07T08:44:23;2.43;;;2.17;;
9888;SDS011;4983;42.112;24.738;2023-05-07T08:46:52;2.00;;;1.70;;
9888;SDS011;4983;42.112;24.738;2023-05-07T08:49:20;2.17;;;1.90;;
9888;SDS011;4983;42.112;24.738;2023-05-07T08:51:49;2.60;;;2.23;;
9888;SDS011;4983;42.112;24.738;2023-05-07T08:54:16;3.60;;;1.93;;
9888;SDS011;4983;42.112;24.738;2023-05-07T08:56:43;2.73;;;2.40;;
9888;SDS011;4983;42.112;24.738;2023-05-07T08:59:10;2.50;;;2.30;;
9888;SDS011;4983;42.112;24.738;2023-05-07T09:01:37;2.43;;;1.90;;
9888;SDS011;4983;42.112;24.738;2023-05-07T09:04:04;2.80;;;2.50;;
9888;SDS011;4983;42.112;24.738;2023-05-07T09:06:30;2.10;;;1.90;;
9888;SDS011;4983;42.112;24.738;2023-05-07T09:08:59;2.47;;;1.70;;
9888;SDS011;4983;42.112;24.738;2023-05-07T09:11:28;2.00;;;1.90;;
9888;SDS011;4983;42.112;24.738;2023-05-07T09:13:55;3.23;;;2.07;;
9888;SDS011;4983;42.112;24.738;2023-05-07T09:16:23;3.83;;;2.03;;
9888;SDS011;4983;42.112;24.738;2023-05-07T09:18:51;2.23;;;1.93;;
9888;SDS011;4983;42.112;24.738;2023-05-07T09:21:19;2.40;;;2.10;;
9888;SDS011;4983;42.112;24.738;2023-05-07T09:23:47;2.17;;;1.97;;
9888;SDS011;4983;42.112;24.738;2023-05-07T09:26:15;2.00;;;1.77;;
9888;SDS011;4983;42.112;24.738;2023-05-07T09:28:43;1.97;;;1.80;;
9888;SDS011;4983;42.112;24.738;2023-05-07T09:31:11;2.20;;;1.70;;
9888;SDS011;4983;42.112;24.738;2023-05-07T09:33:39;1.53;;;1.43;;
9888;SDS011;4983;42.112;24.738;2023-05-07T09:36:06;2.73;;;1.87;;
9888;SDS011;4983;42.112;24.738;2023-05-07T09:38:34;1.77;;;1.47;;
9888;SDS011;4983;42.112;24.738;2023-05-07T09:41:03;1.80;;;1.70;;
9888;SDS011;4983;42.112;24.738;2023-05-07T09:43:32;2.00;;;1.73;;
9888;SDS011;4983;42.112;24.738;2023-05-07T09:46:03;1.63;;;1.53;;
9888;SDS011;4983;42.112;24.738;2023-05-07T09:48:34;2.07;;;1.57;;
9888;SDS011;4983;42.112;24.738;2023-05-07T09:51:03;1.70;;;1.53;;
9888;SDS011;4983;42.112;24.738;2023-05-07T09:53:33;2.00;;;1.80;;
9888;SDS011;4983;42.112;24.738;2023-05-07T09:56:00;2.30;;;1.70;;
9888;SDS011;4983;42.112;24.738;2023-05-07T09:58:27;3.03;;;1.70;;
9888;SDS011;4983;42.112;24.738;2023-05-07T10:00:55;2.00;;;1.80;;
9888;SDS011;4983;42.112;24.738;2023-05-07T10:03:23;1.70;;;1.60;;
9888;SDS011;4983;42.112;24.738;2023-05-07T10:05:51;2.10;;;1.50;;
9888;SDS011;4983;42.112;24.738;2023-05-07T10:08:18;2.70;;;1.77;;
9888;SDS011;4983;42.112;24.738;2023-05-07T10:10:45;2.00;;;1.80;;
9888;SDS011;4983;42.112;24.738;2023-05-07T10:13:12;2.23;;;1.70;;
9888;SDS011;4983;42.112;24.738;2023-05-07T10:15:39;3.63;;;1.83;;
9888;SDS011;4983;42.112;24.738;2023-05-07T10:18:08;1.83;;;1.67;;
9888;SDS011;4983;42.112;24.738;2023-05-07T10:20:35;1.50;;;1.40;;
9888;SDS011;4983;42.112;24.738;2023-05-07T10:23:04;1.73;;;1.63;;
9888;SDS011;4983;42.112;24.738;2023-05-07T10:25:32;2.13;;;1.80;;
9888;SDS011;4983;42.112;24.738;2023-05-07T10:28:00;2.23;;;1.80;;
9888;SDS011;4983;42.112;24.738;2023-05-07T10:30:30;5.13;;;2.10;;
9888;SDS011;4983;42.112;24.738;2023-05-07T10:32:59;1.90;;;1.60;;
9888;SDS011;4983;42.112;24.738;2023-05-07T10:35:37;2.10;;;1.80;;
9888;SDS011;4983;42.112;24.738;2023-05-07T10:38:04;1.97;;;1.60;;
9888;SDS011;4983;42.112;24.738;2023-05-07T10:40:31;2.30;;;1.63;;
9888;SDS011;4983;42.112;24.738;2023-05-07T10:42:59;1.87;;;1.73;;
9888;SDS011;4983;42.112;24.738;2023-05-07T10:45:26;1.93;;;1.60;;
9888;SDS011;4983;42.112;24.738;2023-05-07T10:48:07;2.07;;;1.80;;
9888;SDS011;4983;42.112;24.738;2023-05-07T10:50:36;5.80;;;1.90;;
9888;SDS011;4983;42.112;24.738;2023-05-07T10:53:22;2.10;;;1.70;;
9888;SDS011;4983;42.112;24.738;2023-05-07T10:58:38;1.83;;;1.70;;
9888;SDS011;4983;42.112;24.738;2023-05-07T11:01:04;2.33;;;1.50;;
9888;SDS011;4983;42.112;24.738;2023-05-07T11:03:31;2.23;;;1.77;;
9888;SDS011;4983;42.112;24.738;2023-05-07T11:06:12;2.20;;;1.80;;
9888;SDS011;4983;42.112;24.738;2023-05-07T11:08:54;1.97;;;1.80;;
9888;SDS011;4983;42.112;24.738;2023-05-07T11:14:03;2.23;;;1.63;;
9888;SDS011;4983;42.112;24.738;2023-05-07T11:16:30;1.53;;;1.40;;
9888;SDS011;4983;42.112;24.738;2023-05-07T11:18:58;1.53;;;1.43;;
9888;SDS011;4983;42.112;24.738;2023-05-07T11:21:33;2.03;;;1.70;;
9888;SDS011;4983;42.112;24.738;2023-05-07T11:24:00;1.67;;;1.57;;
9888;SDS011;4983;42.112;24.738;2023-05-07T11:26:28;1.97;;;1.77;;
9888;SDS011;4983;42.112;24.738;2023-05-07T11:28:56;1.70;;;1.33;;
9888;SDS011;4983;42.112;24.738;2023-05-07T11:31:26;1.90;;;1.70;;
9888;SDS011;4983;42.112;24.738;2023-05-07T11:33:54;1.60;;;1.50;;
9888;SDS011;4983;42.112;24.738;2023-05-07T11:36:22;1.87;;;1.70;;
9888;SDS011;4983;42.112;24.738;2023-05-07T11:38:50;2.37;;;1.60;;
9888;SDS011;4983;42.112;24.738;2023-05-07T11:41:17;1.90;;;1.70;;
9888;SDS011;4983;42.112;24.738;2023-05-07T11:43:55;1.70;;;1.60;;
9888;SDS011;4983;42.112;24.738;2023-05-07T11:46:22;1.93;;;1.70;;
9888;SDS011;4983;42.112;24.738;2023-05-07T11:48:49;1.70;;;1.60;;
9888;SDS011;4983;42.112;24.738;2023-05-07T11:51:18;1.53;;;1.43;;
9888;SDS011;4983;42.112;24.738;2023-05-07T11:53:45;1.90;;;1.50;;
9888;SDS011;4983;42.112;24.738;2023-05-07T11:56:14;1.67;;;1.50;;
9888;SDS011;4983;42.112;24.738;2023-05-07T11:58:41;10.07;;;5.60;;
9888;SDS011;4983;42.112;24.738;2023-05-07T12:01:09;3.03;;;1.97;;
9888;SDS011;4983;42.112;24.738;2023-05-07T12:03:39;1.70;;;1.60;;
9888;SDS011;4983;42.112;24.738;2023-05-07T12:06:07;2.43;;;2.00;;
9888;SDS011;4983;42.112;24.738;2023-05-07T12:08:36;2.00;;;1.53;;
9888;SDS011;4983;42.112;24.738;2023-05-07T12:11:03;1.87;;;1.60;;
9888;SDS011;4983;42.112;24.738;2023-05-07T12:13:31;1.80;;;1.50;;
9888;SDS011;4983;42.112;24.738;2023-05-07T12:15:58;1.57;;;1.40;;
9888;SDS011;4983;42.112;24.738;2023-05-07T12:18:24;3.53;;;1.60;;
9888;SDS011;4983;42.112;24.738;2023-05-07T12:20:51;1.87;;;1.70;;
9888;SDS011;4983;42.112;24.738;2023-05-07T12:23:18;1.50;;;1.40;;
9888;SDS011;4983;42.112;24.738;2023-05-07T12:25:45;2.47;;;1.80;;
9888;SDS011;4983;42.112;24.738;2023-05-07T12:28:14;2.17;;;1.90;;
9888;SDS011;4983;42.112;24.738;2023-05-07T12:30:43;1.97;;;1.67;;
9888;SDS011;4983;42.112;24.738;2023-05-07T12:33:10;1.70;;;1.53;;
9888;SDS011;4983;42.112;24.738;2023-05-07T12:35:38;1.50;;;1.40;;
9888;SDS011;4983;42.112;24.738;2023-05-07T12:38:07;1.60;;;1.50;;
9888;SDS011;4983;42.112;24.738;2023-05-07T12:40:35;1.60;;;1.50;;
9888;SDS011;4983;42.112;24.738;2023-05-07T12:43:03;1.67;;;1.57;;
9888;SDS011;4983;42.112;24.738;2023-05-07T12:45:30;1.60;;;1.50;;
9888;SDS011;4983;42.112;24.738;2023-05-07T12:48:00;1.87;;;1.63;;
9888;SDS011;4983;42.112;24.738;2023-05-07T12:50:30;1.50;;;1.40;;
9888;SDS011;4983;42.112;24.738;2023-05-07T12:52:58;1.63;;;1.53;;
9888;SDS011;4983;42.112;24.738;2023-05-07T12:55:25;1.47;;;1.37;;
9888;SDS011;4983;42.112;24.738;2023-05-07T12:57:52;2.63;;;1.87;;
9888;SDS011;4983;42.112;24.738;2023-05-07T13:00:32;2.43;;;1.47;;
9888;SDS011;4983;42.112;24.738;2023-05-07T13:03:00;1.63;;;1.53;;
9888;SDS011;4983;42.112;24.738;2023-05-07T13:05:28;2.03;;;1.60;;
9888;SDS011;4983;42.112;24.738;2023-05-07T13:07:55;2.07;;;1.70;;
9888;SDS011;4983;42.112;24.738;2023-05-07T13:10:23;1.80;;;1.60;;
9888;SDS011;4983;42.112;24.738;2023-05-07T13:12:51;3.10;;;1.90;;
9888;SDS011;4983;42.112;24.738;2023-05-07T13:15:17;1.73;;;1.63;;
9888;SDS011;4983;42.112;24.738;2023-05-07T13:17:46;2.30;;;1.60;;
9888;SDS011;4983;42.112;24.738;2023-05-07T13:20:14;1.63;;;1.50;;
9888;SDS011;4983;42.112;24.738;2023-05-07T13:22:41;1.60;;;1.50;;
9888;SDS011;4983;42.112;24.738;2023-05-07T13:25:08;2.03;;;1.77;;
9888;SDS011;4983;42.112;24.738;2023-05-07T13:27:37;2.00;;;1.60;;
9888;SDS011;4983;42.112;24.738;2023-05-07T13:30:04;2.30;;;1.90;;
9888;SDS011;4983;42.112;24.738;2023-05-07T13:32:31;2.00;;;1.80;;
9888;SDS011;4983;42.112;24.738;2023-05-07T13:35:00;2.37;;;1.90;;
9888;SDS011;4983;42.112;24.738;2023-05-07T13:37:28;2.70;;;1.80;;
9888;SDS011;4983;42.112;24.738;2023-05-07T13:39:57;1.87;;;1.60;;
9888;SDS011;4983;42.112;24.738;2023-05-07T13:42:23;1.50;;;1.30;;
9888;SDS011;4983;42.112;24.738;2023-05-07T13:44:52;1.60;;;1.50;;
9888;SDS011;4983;42.112;24.738;2023-05-07T13:47:19;1.80;;;1.70;;
9888;SDS011;4983;42.112;24.738;2023-05-07T13:49:46;1.30;;;1.20;;
9888;SDS011;4983;42.112;24.738;2023-05-07T13:52:14;2.77;;;1.50;;
9888;SDS011;4983;42.112;24.738;2023-05-07T13:54:44;1.67;;;1.50;;
9888;SDS011;4983;42.112;24.738;2023-05-07T13:57:10;2.10;;;1.90;;
9888;SDS011;4983;42.112;24.738;2023-05-07T13:59:37;2.87;;;1.70;;
9888;SDS011;4983;42.112;24.738;2023-05-07T14:02:05;2.93;;;1.57;;
9888;SDS011;4983;42.112;24.738;2023-05-07T14:04:32;1.67;;;1.57;;
9888;SDS011;4983;42.112;24.738;2023-05-07T14:06:58;1.60;;;1.50;;
9888;SDS011;4983;42.112;24.738;2023-05-07T14:09:26;1.40;;;1.30;;
9888;SDS011;4983;42.112;24.738;2023-05-07T14:11:54;1.63;;;1.53;;
9888;SDS011;4983;42.112;24.738;2023-05-07T14:14:21;1.70;;;1.60;;
9888;SDS011;4983;42.112;24.738;2023-05-07T14:16:48;1.40;;;1.30;;
9888;SDS011;4983;42.112;24.738;2023-05-07T14:19:15;1.63;;;1.30;;
9888;SDS011;4983;42.112;24.738;2023-05-07T14:21:41;1.50;;;1.40;;
9888;SDS011;4983;42.112;24.738;2023-05-07T14:24:09;2.50;;;1.30;;
9888;SDS011;4983;42.112;24.738;2023-05-07T14:26:36;1.30;;;1.17;;
9888;SDS011;4983;42.112;24.738;2023-05-07T14:29:04;1.50;;;1.40;;
9888;SDS011;4983;42.112;24.738;2023-05-07T14:31:31;1.70;;;1.40;;
9888;SDS011;4983;42.112;24.738;2023-05-07T14:33:58;1.47;;;1.33;;
9888;SDS011;4983;42.112;24.738;2023-05-07T14:36:25;2.30;;;1.40;;
9888;SDS011;4983;42.112;24.738;2023-05-07T14:38:52;1.50;;;1.20;;
9888;SDS011;4983;42.112;24.738;2023-05-07T14:41:20;1.30;;;1.20;;
9888;SDS011;4983;42.112;24.738;2023-05-07T14:43:47;3.43;;;1.60;;
9888;SDS011;4983;42.112;24.738;2023-05-07T14:46:18;1.67;;;1.40;;
9888;SDS011;4983;42.112;24.738;2023-05-07T14:48:45;1.33;;;1.20;;
9888;SDS011;4983;42.112;24.738;2023-05-07T14:51:12;1.30;;;1.20;;
9888;SDS011;4983;42.112;24.738;2023-05-07T14:53:40;1.40;;;1.30;;
9888;SDS011;4983;42.112;24.738;2023-05-07T14:56:07;1.47;;;1.30;;
9888;SDS011;4983;42.112;24.738;2023-05-07T14:58:34;1.30;;;1.20;;
9888;SDS011;4983;42.112;24.738;2023-05-07T15:01:01;1.50;;;1.40;;
9888;SDS011;4983;42.112;24.738;2023-05-07T15:03:30;2.60;;;1.83;;
9888;SDS011;4983;42.112;24.738;2023-05-07T15:05:56;1.60;;;1.27;;
9888;SDS011;4983;42.112;24.738;2023-05-07T15:08:23;1.60;;;1.30;;